sensor_id;sensor_type;location;lat;lon;timestamp;temperature;humidity
921;DHT22;447;51.332;6.778;2022-11-23T00:01:18;9.40;99.90
921;DHT22;447;51.332;6.778;2022-11-23T00:03:46;9.40;99.90
921;DHT22;447;51.332;6.778;2022-11-23T00:06:13;9.40;99.90
921;DHT22;447;51.332;6.778;2022-11-23T00:08:42;9.40;99.90
921;DHT22;447;51.332;6.778;2022-11-23T00:11:08;9.50;99.90
921;DHT22;447;51.332;6.778;2022-11-23T00:13:35;9.50;99.90
921;DHT22;447;51.332;6.778;2022-11-23T00:16:08;9.50;99.90
921;DHT22;447;51.332;6.778;2022-11-23T00:18:38;9.50;99.90
921;DHT22;447;51.332;6.778;2022-11-23T00:21:06;9.40;99.90
921;DHT22;447;51.332;6.778;2022-11-23T00:23:35;9.50;99.90
921;DHT22;447;51.332;6.778;2022-11-23T00:26:01;9.50;99.90
921;DHT22;447;51.332;6.778;2022-11-23T00:28:27;9.50;99.90
921;DHT22;447;51.332;6.778;2022-11-23T00:30:53;9.40;99.90
921;DHT22;447;51.332;6.778;2022-11-23T00:33:19;9.50;99.90
921;DHT22;447;51.332;6.778;2022-11-23T00:35:57;9.50;99.90
921;DHT22;447;51.332;6.778;2022-11-23T00:38:25;9.50;99.90
921;DHT22;447;51.332;6.778;2022-11-23T00:41:08;9.50;99.90
921;DHT22;447;51.332;6.778;2022-11-23T00:43:35;9.50;99.90
921;DHT22;447;51.332;6.778;2022-11-23T00:48:41;9.50;99.90
921;DHT22;447;51.332;6.778;2022-11-23T00:51:14;9.50;99.90
921;DHT22;447;51.332;6.778;2022-11-23T00:53:43;9.50;99.90
921;DHT22;447;51.332;6.778;2022-11-23T00:56:11;9.50;99.90
921;DHT22;447;51.332;6.778;2022-11-23T00:58:37;9.50;99.90
921;DHT22;447;51.332;6.778;2022-11-23T01:01:13;9.50;99.90
921;DHT22;447;51.332;6.778;2022-11-23T01:03:43;9.50;99.90
921;DHT22;447;51.332;6.778;2022-11-23T01:06:12;9.50;99.90
921;DHT22;447;51.332;6.778;2022-11-23T01:08:39;9.50;99.90
921;DHT22;447;51.332;6.778;2022-11-23T01:11:08;9.50;99.90
921;DHT22;447;51.332;6.778;2022-11-23T01:13:36;9.50;99.90
921;DHT22;447;51.332;6.778;2022-11-23T01:16:05;9.50;99.90
921;DHT22;447;51.332;6.778;2022-11-23T01:18:31;9.50;99.90
921;DHT22;447;51.332;6.778;2022-11-23T01:21:00;9.50;99.90
921;DHT22;447;51.332;6.778;2022-11-23T01:23:28;9.60;99.90
921;DHT22;447;51.332;6.778;2022-11-23T01:25:55;9.60;99.90
921;DHT22;447;51.332;6.778;2022-11-23T01:28:21;9.60;99.90
921;DHT22;447;51.332;6.778;2022-11-23T01:30:52;9.50;99.90
921;DHT22;447;51.332;6.778;2022-11-23T01:33:18;9.60;99.90
921;DHT22;447;51.332;6.778;2022-11-23T01:35:46;9.50;99.90
921;DHT22;447;51.332;6.778;2022-11-23T01:38:14;9.50;99.90
921;DHT22;447;51.332;6.778;2022-11-23T01:40:41;9.60;99.90
921;DHT22;447;51.332;6.778;2022-11-23T01:43:14;9.60;99.90
921;DHT22;447;51.332;6.778;2022-11-23T01:45:43;9.60;99.90
921;DHT22;447;51.332;6.778;2022-11-23T01:48:30;9.60;99.90
921;DHT22;447;51.332;6.778;2022-11-23T01:51:01;9.60;99.90
921;DHT22;447;51.332;6.778;2022-11-23T01:53:36;9.60;99.90
921;DHT22;447;51.332;6.778;2022-11-23T01:56:07;9.60;99.90
921;DHT22;447;51.332;6.778;2022-11-23T01:58:39;9.60;99.90
921;DHT22;447;51.332;6.778;2022-11-23T02:01:06;9.60;99.90
921;DHT22;447;51.332;6.778;2022-11-23T02:03:35;9.60;99.90
921;DHT22;447;51.332;6.778;2022-11-23T02:06:14;9.60;99.90
921;DHT22;447;51.332;6.778;2022-11-23T02:08:43;9.60;99.90
921;DHT22;447;51.332;6.778;2022-11-23T02:11:15;9.60;99.90
921;DHT22;447;51.332;6.778;2022-11-23T02:13:43;9.60;99.90
921;DHT22;447;51.332;6.778;2022-11-23T02:16:09;9.60;99.90
921;DHT22;447;51.332;6.778;2022-11-23T02:18:40;9.60;99.90
921;DHT22;447;51.332;6.778;2022-11-23T02:21:09;9.60;99.90
921;DHT22;447;51.332;6.778;2022-11-23T02:26:33;9.60;99.90
921;DHT22;447;51.332;6.778;2022-11-23T02:29:08;9.60;99.90
921;DHT22;447;51.332;6.778;2022-11-23T02:31:35;9.60;99.90
921;DHT22;447;51.332;6.778;2022-11-23T02:34:01;9.60;99.90
921;DHT22;447;51.332;6.778;2022-11-23T02:36:41;9.60;99.90
921;DHT22;447;51.332;6.778;2022-11-23T02:41:52;9.60;99.90
921;DHT22;447;51.332;6.778;2022-11-23T02:47:23;9.70;99.90
921;DHT22;447;51.332;6.778;2022-11-23T02:49:52;9.70;99.90
921;DHT22;447;51.332;6.778;2022-11-23T02:52:18;9.60;99.90
921;DHT22;447;51.332;6.778;2022-11-23T02:54:46;9.60;99.90
921;DHT22;447;51.332;6.778;2022-11-23T02:57:12;9.70;99.90
921;DHT22;447;51.332;6.778;2022-11-23T02:59:39;9.60;99.90
921;DHT22;447;51.332;6.778;2022-11-23T03:02:06;9.60;99.90
921;DHT22;447;51.332;6.778;2022-11-23T03:04:32;9.70;99.90
921;DHT22;447;51.332;6.778;2022-11-23T03:06:58;9.60;99.90
921;DHT22;447;51.332;6.778;2022-11-23T03:09:24;9.70;99.90
921;DHT22;447;51.332;6.778;2022-11-23T03:11:53;9.70;99.90
921;DHT22;447;51.332;6.778;2022-11-23T03:14:20;9.70;99.90
921;DHT22;447;51.332;6.778;2022-11-23T03:16:51;9.70;99.90
921;DHT22;447;51.332;6.778;2022-11-23T03:19:19;9.70;99.90
921;DHT22;447;51.332;6.778;2022-11-23T03:21:46;9.70;99.90
921;DHT22;447;51.332;6.778;2022-11-23T03:24:11;9.70;99.90
921;DHT22;447;51.332;6.778;2022-11-23T03:26:38;9.70;99.90
921;DHT22;447;51.332;6.778;2022-11-23T03:29:09;9.60;99.90
921;DHT22;447;51.332;6.778;2022-11-23T03:31:37;9.70;99.90
921;DHT22;447;51.332;6.778;2022-11-23T03:34:09;9.70;99.90
921;DHT22;447;51.332;6.778;2022-11-23T03:36:38;9.70;99.90
921;DHT22;447;51.332;6.778;2022-11-23T03:39:04;9.60;99.90
921;DHT22;447;51.332;6.778;2022-11-23T03:41:50;9.70;99.90
921;DHT22;447;51.332;6.778;2022-11-23T03:44:21;9.60;99.90
921;DHT22;447;51.332;6.778;2022-11-23T03:46:48;9.70;99.90
921;DHT22;447;51.332;6.778;2022-11-23T03:49:15;9.70;99.90
921;DHT22;447;51.332;6.778;2022-11-23T03:51:44;9.60;99.90
921;DHT22;447;51.332;6.778;2022-11-23T03:54:10;9.70;99.90
921;DHT22;447;51.332;6.778;2022-11-23T03:56:37;9.60;99.90
921;DHT22;447;51.332;6.778;2022-11-23T03:59:03;9.60;99.90
921;DHT22;447;51.332;6.778;2022-11-23T04:01:29;9.70;99.90
921;DHT22;447;51.332;6.778;2022-11-23T04:04:03;9.60;99.90
921;DHT22;447;51.332;6.778;2022-11-23T04:06:50;9.70;99.90
921;DHT22;447;51.332;6.778;2022-11-23T04:09:32;9.70;99.90
921;DHT22;447;51.332;6.778;2022-11-23T04:12:04;9.60;99.90
921;DHT22;447;51.332;6.778;2022-11-23T04:14:35;9.70;99.90
921;DHT22;447;51.332;6.778;2022-11-23T04:17:01;9.70;99.90
921;DHT22;447;51.332;6.778;2022-11-23T04:19:28;9.60;99.90
921;DHT22;447;51.332;6.778;2022-11-23T04:21:59;9.60;99.90
921;DHT22;447;51.332;6.778;2022-11-23T04:24:28;9.60;99.90
921;DHT22;447;51.332;6.778;2022-11-23T04:26:57;9.60;99.90
921;DHT22;447;51.332;6.778;2022-11-23T04:29:26;9.60;99.90
921;DHT22;447;51.332;6.778;2022-11-23T04:31:53;9.70;99.90
921;DHT22;447;51.332;6.778;2022-11-23T04:34:24;9.60;99.90
921;DHT22;447;51.332;6.778;2022-11-23T04:36:54;9.60;99.90
921;DHT22;447;51.332;6.778;2022-11-23T04:39:28;9.60;99.90
921;DHT22;447;51.332;6.778;2022-11-23T04:42:12;9.60;99.90
921;DHT22;447;51.332;6.778;2022-11-23T04:44:43;9.60;99.90
921;DHT22;447;51.332;6.778;2022-11-23T04:47:14;9.60;99.90
921;DHT22;447;51.332;6.778;2022-11-23T04:49:40;9.60;99.90
921;DHT22;447;51.332;6.778;2022-11-23T04:52:07;9.60;99.90
921;DHT22;447;51.332;6.778;2022-11-23T04:54:40;9.60;99.90
921;DHT22;447;51.332;6.778;2022-11-23T04:57:09;9.60;99.90
921;DHT22;447;51.332;6.778;2022-11-23T04:59:37;9.70;99.90
921;DHT22;447;51.332;6.778;2022-11-23T05:02:04;9.70;99.90
921;DHT22;447;51.332;6.778;2022-11-23T05:04:41;9.60;99.90
921;DHT22;447;51.332;6.778;2022-11-23T05:07:13;9.60;99.90
921;DHT22;447;51.332;6.778;2022-11-23T05:09:44;9.60;99.90
921;DHT22;447;51.332;6.778;2022-11-23T05:12:17;9.60;99.90
921;DHT22;447;51.332;6.778;2022-11-23T05:14:43;9.60;99.90
921;DHT22;447;51.332;6.778;2022-11-23T05:17:17;9.60;99.90
921;DHT22;447;51.332;6.778;2022-11-23T05:19:45;9.60;99.90
921;DHT22;447;51.332;6.778;2022-11-23T05:22:14;9.60;99.90
921;DHT22;447;51.332;6.778;2022-11-23T05:24:41;9.70;99.90
921;DHT22;447;51.332;6.778;2022-11-23T05:27:12;9.60;99.90
921;DHT22;447;51.332;6.778;2022-11-23T05:29:38;9.60;99.90
921;DHT22;447;51.332;6.778;2022-11-23T05:32:08;9.70;99.90
921;DHT22;447;51.332;6.778;2022-11-23T05:34:34;9.70;99.90
921;DHT22;447;51.332;6.778;2022-11-23T05:37:02;9.70;99.90
921;DHT22;447;51.332;6.778;2022-11-23T05:39:33;9.70;99.90
921;DHT22;447;51.332;6.778;2022-11-23T05:42:02;9.70;99.90
921;DHT22;447;51.332;6.778;2022-11-23T05:44:37;9.60;99.90
921;DHT22;447;51.332;6.778;2022-11-23T05:47:08;9.70;99.90
921;DHT22;447;51.332;6.778;2022-11-23T05:49:36;9.70;99.90
921;DHT22;447;51.332;6.778;2022-11-23T05:52:06;9.70;99.90
921;DHT22;447;51.332;6.778;2022-11-23T05:54:39;9.70;99.90
921;DHT22;447;51.332;6.778;2022-11-23T05:57:13;9.70;99.90
921;DHT22;447;51.332;6.778;2022-11-23T05:59:41;9.60;99.90
921;DHT22;447;51.332;6.778;2022-11-23T06:02:12;9.70;99.90
921;DHT22;447;51.332;6.778;2022-11-23T06:04:38;9.70;99.90
921;DHT22;447;51.332;6.778;2022-11-23T06:07:08;9.70;99.90
921;DHT22;447;51.332;6.778;2022-11-23T06:09:48;9.70;99.90
921;DHT22;447;51.332;6.778;2022-11-23T06:12:18;9.70;99.90
921;DHT22;447;51.332;6.778;2022-11-23T06:14:46;9.70;99.90
921;DHT22;447;51.332;6.778;2022-11-23T06:17:14;9.70;99.90
921;DHT22;447;51.332;6.778;2022-11-23T06:19:49;9.70;99.90
921;DHT22;447;51.332;6.778;2022-11-23T06:22:16;9.60;99.90
921;DHT22;447;51.332;6.778;2022-11-23T06:24:50;9.70;99.90
921;DHT22;447;51.332;6.778;2022-11-23T06:27:35;9.60;99.90
921;DHT22;447;51.332;6.778;2022-11-23T06:30:06;9.70;99.90
921;DHT22;447;51.332;6.778;2022-11-23T06:32:32;9.70;99.90
921;DHT22;447;51.332;6.778;2022-11-23T06:35:01;9.70;99.90
921;DHT22;447;51.332;6.778;2022-11-23T06:37:35;9.70;99.90
921;DHT22;447;51.332;6.778;2022-11-23T06:40:02;9.70;99.90
921;DHT22;447;51.332;6.778;2022-11-23T06:42:30;9.70;99.90
921;DHT22;447;51.332;6.778;2022-11-23T06:45:00;9.70;99.90
921;DHT22;447;51.332;6.778;2022-11-23T06:47:29;9.70;99.90
921;DHT22;447;51.332;6.778;2022-11-23T06:49:56;9.70;99.90
921;DHT22;447;51.332;6.778;2022-11-23T06:52:26;9.70;99.90
921;DHT22;447;51.332;6.778;2022-11-23T06:54:53;9.70;99.90
921;DHT22;447;51.332;6.778;2022-11-23T06:57:20;9.70;99.90
921;DHT22;447;51.332;6.778;2022-11-23T06:59:47;9.70;99.90
921;DHT22;447;51.332;6.778;2022-11-23T07:02:20;9.70;99.90
921;DHT22;447;51.332;6.778;2022-11-23T07:04:46;9.70;99.90
921;DHT22;447;51.332;6.778;2022-11-23T07:07:16;9.70;99.90
921;DHT22;447;51.332;6.778;2022-11-23T07:09:51;9.70;99.90
921;DHT22;447;51.332;6.778;2022-11-23T07:12:24;9.70;99.90
921;DHT22;447;51.332;6.778;2022-11-23T07:14:54;9.70;99.90
921;DHT22;447;51.332;6.778;2022-11-23T07:17:23;9.70;99.90
921;DHT22;447;51.332;6.778;2022-11-23T07:19:51;9.70;99.90
921;DHT22;447;51.332;6.778;2022-11-23T07:22:20;9.70;99.90
921;DHT22;447;51.332;6.778;2022-11-23T07:24:46;9.70;99.90
921;DHT22;447;51.332;6.778;2022-11-23T07:27:12;9.70;99.90
921;DHT22;447;51.332;6.778;2022-11-23T07:29:41;9.70;99.90
921;DHT22;447;51.332;6.778;2022-11-23T07:32:06;9.70;99.90
921;DHT22;447;51.332;6.778;2022-11-23T07:34:35;9.70;99.90
921;DHT22;447;51.332;6.778;2022-11-23T07:37:04;9.70;99.90
921;DHT22;447;51.332;6.778;2022-11-23T07:39:32;9.70;99.90
921;DHT22;447;51.332;6.778;2022-11-23T07:42:00;9.70;99.90
921;DHT22;447;51.332;6.778;2022-11-23T07:44:36;9.70;99.90
921;DHT22;447;51.332;6.778;2022-11-23T07:47:06;9.70;99.90
921;DHT22;447;51.332;6.778;2022-11-23T07:49:32;9.70;99.90
921;DHT22;447;51.332;6.778;2022-11-23T07:51:58;9.70;99.90
921;DHT22;447;51.332;6.778;2022-11-23T07:54:26;9.70;99.90
921;DHT22;447;51.332;6.778;2022-11-23T07:56:52;9.70;99.90
921;DHT22;447;51.332;6.778;2022-11-23T07:59:18;9.70;99.90
921;DHT22;447;51.332;6.778;2022-11-23T08:01:44;9.70;99.90
921;DHT22;447;51.332;6.778;2022-11-23T08:04:10;9.70;99.90
921;DHT22;447;51.332;6.778;2022-11-23T08:06:38;9.70;99.90
921;DHT22;447;51.332;6.778;2022-11-23T08:09:06;9.70;99.90
921;DHT22;447;51.332;6.778;2022-11-23T08:11:33;9.70;99.90
921;DHT22;447;51.332;6.778;2022-11-23T08:13:59;9.70;99.90
921;DHT22;447;51.332;6.778;2022-11-23T08:16:25;9.70;99.90
921;DHT22;447;51.332;6.778;2022-11-23T08:18:53;9.70;99.90
921;DHT22;447;51.332;6.778;2022-11-23T08:21:22;9.70;99.90
921;DHT22;447;51.332;6.778;2022-11-23T08:23:48;9.70;99.90
921;DHT22;447;51.332;6.778;2022-11-23T08:26:14;9.80;99.90
921;DHT22;447;51.332;6.778;2022-11-23T08:28:45;9.70;99.90
921;DHT22;447;51.332;6.778;2022-11-23T08:31:23;9.70;99.90
921;DHT22;447;51.332;6.778;2022-11-23T08:33:49;9.80;99.90
921;DHT22;447;51.332;6.778;2022-11-23T08:36:15;9.70;99.90
921;DHT22;447;51.332;6.778;2022-11-23T08:38:43;9.80;99.90
921;DHT22;447;51.332;6.778;2022-11-23T08:41:12;9.80;99.90
921;DHT22;447;51.332;6.778;2022-11-23T08:43:38;9.80;99.90
921;DHT22;447;51.332;6.778;2022-11-23T08:46:04;9.80;99.90
921;DHT22;447;51.332;6.778;2022-11-23T08:48:30;9.80;99.90
921;DHT22;447;51.332;6.778;2022-11-23T08:51:02;9.80;99.90
921;DHT22;447;51.332;6.778;2022-11-23T08:53:28;9.80;99.90
921;DHT22;447;51.332;6.778;2022-11-23T08:56:00;9.80;99.90
921;DHT22;447;51.332;6.778;2022-11-23T08:58:26;9.80;99.90
921;DHT22;447;51.332;6.778;2022-11-23T09:00:52;9.80;99.90
921;DHT22;447;51.332;6.778;2022-11-23T09:03:18;9.80;99.90
921;DHT22;447;51.332;6.778;2022-11-23T09:05:44;9.80;99.90
921;DHT22;447;51.332;6.778;2022-11-23T09:08:13;9.90;99.90
921;DHT22;447;51.332;6.778;2022-11-23T09:10:42;9.90;99.90
921;DHT22;447;51.332;6.778;2022-11-23T09:13:10;9.90;99.90
921;DHT22;447;51.332;6.778;2022-11-23T09:15:42;9.90;99.90
921;DHT22;447;51.332;6.778;2022-11-23T09:18:10;9.90;99.90
921;DHT22;447;51.332;6.778;2022-11-23T09:20:38;9.90;99.90
921;DHT22;447;51.332;6.778;2022-11-23T09:23:05;9.90;99.90
921;DHT22;447;51.332;6.778;2022-11-23T09:25:31;9.90;99.90
921;DHT22;447;51.332;6.778;2022-11-23T09:27:59;9.90;99.90
921;DHT22;447;51.332;6.778;2022-11-23T09:30:26;9.90;99.90
921;DHT22;447;51.332;6.778;2022-11-23T09:32:56;9.90;99.90
921;DHT22;447;51.332;6.778;2022-11-23T09:35:23;9.90;99.90
921;DHT22;447;51.332;6.778;2022-11-23T09:37:57;9.90;99.90
921;DHT22;447;51.332;6.778;2022-11-23T09:40:33;9.90;99.90
921;DHT22;447;51.332;6.778;2022-11-23T09:45:57;9.90;99.90
921;DHT22;447;51.332;6.778;2022-11-23T09:51:04;10.00;99.90
921;DHT22;447;51.332;6.778;2022-11-23T09:53:43;10.00;99.90
921;DHT22;447;51.332;6.778;2022-11-23T09:56:18;9.90;99.90
921;DHT22;447;51.332;6.778;2022-11-23T09:58:45;9.90;99.90
921;DHT22;447;51.332;6.778;2022-11-23T10:01:14;9.90;99.90
921;DHT22;447;51.332;6.778;2022-11-23T10:03:46;9.90;99.90
921;DHT22;447;51.332;6.778;2022-11-23T10:09:20;10.00;99.90
921;DHT22;447;51.332;6.778;2022-11-23T10:15:11;10.00;99.90
921;DHT22;447;51.332;6.778;2022-11-23T10:21:21;10.00;99.90
921;DHT22;447;51.332;6.778;2022-11-23T10:24:16;10.00;99.90
921;DHT22;447;51.332;6.778;2022-11-23T10:26:47;10.00;99.90
921;DHT22;447;51.332;6.778;2022-11-23T10:31:53;10.00;99.90
921;DHT22;447;51.332;6.778;2022-11-23T10:34:44;10.00;99.90
921;DHT22;447;51.332;6.778;2022-11-23T10:37:12;10.00;99.90
921;DHT22;447;51.332;6.778;2022-11-23T10:39:41;10.10;99.90
921;DHT22;447;51.332;6.778;2022-11-23T10:44:58;10.00;99.90
921;DHT22;447;51.332;6.778;2022-11-23T10:47:49;10.10;99.90
921;DHT22;447;51.332;6.778;2022-11-23T10:50:22;10.10;99.90
921;DHT22;447;51.332;6.778;2022-11-23T10:52:53;10.10;99.90
921;DHT22;447;51.332;6.778;2022-11-23T10:55:29;10.00;99.90
921;DHT22;447;51.332;6.778;2022-11-23T10:57:59;10.00;99.90
921;DHT22;447;51.332;6.778;2022-11-23T11:00:28;10.10;99.90
921;DHT22;447;51.332;6.778;2022-11-23T11:02:58;10.10;99.90
921;DHT22;447;51.332;6.778;2022-11-23T11:05:38;10.10;99.90
921;DHT22;447;51.332;6.778;2022-11-23T11:08:19;10.10;99.90
921;DHT22;447;51.332;6.778;2022-11-23T11:10:46;10.10;99.90
921;DHT22;447;51.332;6.778;2022-11-23T11:13:28;10.10;99.90
921;DHT22;447;51.332;6.778;2022-11-23T11:16:03;10.10;99.90
921;DHT22;447;51.332;6.778;2022-11-23T11:18:35;10.10;99.90
921;DHT22;447;51.332;6.778;2022-11-23T11:21:09;10.10;99.90
921;DHT22;447;51.332;6.778;2022-11-23T11:23:49;10.10;99.90
921;DHT22;447;51.332;6.778;2022-11-23T11:26:21;10.10;99.90
921;DHT22;447;51.332;6.778;2022-11-23T11:28:54;10.10;99.90
921;DHT22;447;51.332;6.778;2022-11-23T11:34:25;10.10;99.90
921;DHT22;447;51.332;6.778;2022-11-23T11:40:08;10.10;99.90
921;DHT22;447;51.332;6.778;2022-11-23T11:42:42;10.10;99.90
921;DHT22;447;51.332;6.778;2022-11-23T11:45:21;10.10;99.90
921;DHT22;447;51.332;6.778;2022-11-23T11:50:48;10.10;99.90
921;DHT22;447;51.332;6.778;2022-11-23T11:53:14;10.10;99.90
921;DHT22;447;51.332;6.778;2022-11-23T11:56:03;10.20;99.90
921;DHT22;447;51.332;6.778;2022-11-23T11:58:32;10.20;99.90
921;DHT22;447;51.332;6.778;2022-11-23T12:01:19;10.10;99.90
921;DHT22;447;51.332;6.778;2022-11-23T12:03:58;10.10;99.90
921;DHT22;447;51.332;6.778;2022-11-23T12:06:34;10.20;99.90
921;DHT22;447;51.332;6.778;2022-11-23T12:09:17;10.20;99.90
921;DHT22;447;51.332;6.778;2022-11-23T12:11:49;10.20;99.90
921;DHT22;447;51.332;6.778;2022-11-23T12:14:18;10.20;99.90
921;DHT22;447;51.332;6.778;2022-11-23T12:19:56;10.20;99.90
921;DHT22;447;51.332;6.778;2022-11-23T12:23:01;10.20;99.90
921;DHT22;447;51.332;6.778;2022-11-23T12:25:33;10.20;99.90
921;DHT22;447;51.332;6.778;2022-11-23T12:42:41;10.30;99.90
921;DHT22;447;51.332;6.778;2022-11-23T12:53:48;10.30;99.90
921;DHT22;447;51.332;6.778;2022-11-23T13:02:25;10.30;99.90
921;DHT22;447;51.332;6.778;2022-11-23T13:10:46;10.30;99.90
921;DHT22;447;51.332;6.778;2022-11-23T13:16:08;10.30;99.90
921;DHT22;447;51.332;6.778;2022-11-23T13:21:42;10.30;99.90
921;DHT22;447;51.332;6.778;2022-11-23T13:24:33;10.30;99.90
921;DHT22;447;51.332;6.778;2022-11-23T13:40:32;10.30;99.90
921;DHT22;447;51.332;6.778;2022-11-23T13:43:13;10.30;99.90
921;DHT22;447;51.332;6.778;2022-11-23T13:45:42;10.30;99.90
921;DHT22;447;51.332;6.778;2022-11-23T13:48:11;10.30;99.90
921;DHT22;447;51.332;6.778;2022-11-23T13:50:55;10.30;99.90
921;DHT22;447;51.332;6.778;2022-11-23T13:53:41;10.30;99.90
921;DHT22;447;51.332;6.778;2022-11-23T14:04:37;10.30;99.90
921;DHT22;447;51.332;6.778;2022-11-23T14:13:11;10.30;99.90
921;DHT22;447;51.332;6.778;2022-11-23T14:15:44;10.30;99.90
921;DHT22;447;51.332;6.778;2022-11-23T14:24:08;10.30;99.90
921;DHT22;447;51.332;6.778;2022-11-23T14:32:26;10.30;99.90
921;DHT22;447;51.332;6.778;2022-11-23T14:38:24;10.30;99.90
921;DHT22;447;51.332;6.778;2022-11-23T14:43:27;10.30;99.90
921;DHT22;447;51.332;6.778;2022-11-23T14:46:03;10.30;99.90
921;DHT22;447;51.332;6.778;2022-11-23T14:48:34;10.30;99.90
921;DHT22;447;51.332;6.778;2022-11-23T14:51:04;10.30;99.90
921;DHT22;447;51.332;6.778;2022-11-23T14:53:45;10.30;99.90
921;DHT22;447;51.332;6.778;2022-11-23T14:59:01;10.30;99.90
921;DHT22;447;51.332;6.778;2022-11-23T15:01:33;10.30;99.90
921;DHT22;447;51.332;6.778;2022-11-23T15:04:09;10.30;99.90
921;DHT22;447;51.332;6.778;2022-11-23T15:06:48;10.30;99.90
921;DHT22;447;51.332;6.778;2022-11-23T15:12:17;10.30;99.90
921;DHT22;447;51.332;6.778;2022-11-23T15:14:45;10.30;99.90
921;DHT22;447;51.332;6.778;2022-11-23T15:17:15;10.30;99.90
921;DHT22;447;51.332;6.778;2022-11-23T15:19:41;10.30;99.90
921;DHT22;447;51.332;6.778;2022-11-23T15:22:15;10.30;99.90
921;DHT22;447;51.332;6.778;2022-11-23T15:24:45;10.30;99.90
921;DHT22;447;51.332;6.778;2022-11-23T15:27:19;10.30;99.90
921;DHT22;447;51.332;6.778;2022-11-23T15:29:52;10.30;99.90
921;DHT22;447;51.332;6.778;2022-11-23T15:32:31;10.30;99.90
921;DHT22;447;51.332;6.778;2022-11-23T15:34:59;10.30;99.90
921;DHT22;447;51.332;6.778;2022-11-23T15:37:30;10.30;99.90
921;DHT22;447;51.332;6.778;2022-11-23T15:39:57;10.30;99.90
921;DHT22;447;51.332;6.778;2022-11-23T15:42:28;10.30;99.90
921;DHT22;447;51.332;6.778;2022-11-23T15:44:53;10.30;99.90
921;DHT22;447;51.332;6.778;2022-11-23T15:47:30;10.30;99.90
921;DHT22;447;51.332;6.778;2022-11-23T15:50:06;10.30;99.90
921;DHT22;447;51.332;6.778;2022-11-23T15:52:34;10.30;99.90
921;DHT22;447;51.332;6.778;2022-11-23T15:55:07;10.30;99.90
921;DHT22;447;51.332;6.778;2022-11-23T15:57:38;10.30;99.90
921;DHT22;447;51.332;6.778;2022-11-23T16:00:17;10.20;99.90
921;DHT22;447;51.332;6.778;2022-11-23T16:02:48;10.30;99.90
921;DHT22;447;51.332;6.778;2022-11-23T16:05:21;10.30;99.90
921;DHT22;447;51.332;6.778;2022-11-23T16:10:19;10.20;99.90
921;DHT22;447;51.332;6.778;2022-11-23T16:13:05;10.20;99.90
921;DHT22;447;51.332;6.778;2022-11-23T16:20:30;10.20;99.90
921;DHT22;447;51.332;6.778;2022-11-23T16:22:57;10.20;99.90
921;DHT22;447;51.332;6.778;2022-11-23T16:28:00;10.20;99.90
921;DHT22;447;51.332;6.778;2022-11-23T16:30:36;10.20;99.90
921;DHT22;447;51.332;6.778;2022-11-23T16:33:03;10.20;99.90
921;DHT22;447;51.332;6.778;2022-11-23T16:35:32;10.20;99.90
921;DHT22;447;51.332;6.778;2022-11-23T16:38:00;10.20;99.90
921;DHT22;447;51.332;6.778;2022-11-23T16:40:29;10.20;99.90
921;DHT22;447;51.332;6.778;2022-11-23T16:42:59;10.20;99.90
921;DHT22;447;51.332;6.778;2022-11-23T16:45:27;10.20;99.90
921;DHT22;447;51.332;6.778;2022-11-23T16:47:55;10.20;99.90
921;DHT22;447;51.332;6.778;2022-11-23T16:50:26;10.20;99.90
921;DHT22;447;51.332;6.778;2022-11-23T16:52:54;10.20;99.90
921;DHT22;447;51.332;6.778;2022-11-23T16:55:23;10.20;99.90
921;DHT22;447;51.332;6.778;2022-11-23T16:57:52;10.20;99.90
921;DHT22;447;51.332;6.778;2022-11-23T17:00:20;10.20;99.90
921;DHT22;447;51.332;6.778;2022-11-23T17:02:48;10.20;99.90
921;DHT22;447;51.332;6.778;2022-11-23T17:05:19;10.20;99.90
921;DHT22;447;51.332;6.778;2022-11-23T17:07:45;10.20;99.90
921;DHT22;447;51.332;6.778;2022-11-23T17:10:13;10.10;99.90
921;DHT22;447;51.332;6.778;2022-11-23T17:12:39;10.10;99.90
921;DHT22;447;51.332;6.778;2022-11-23T17:15:11;10.20;99.90
921;DHT22;447;51.332;6.778;2022-11-23T17:17:37;10.10;99.90
921;DHT22;447;51.332;6.778;2022-11-23T17:20:11;10.10;99.90
921;DHT22;447;51.332;6.778;2022-11-23T17:22:39;10.20;99.90
921;DHT22;447;51.332;6.778;2022-11-23T17:25:07;10.10;99.90
921;DHT22;447;51.332;6.778;2022-11-23T17:27:36;10.20;99.90
921;DHT22;447;51.332;6.778;2022-11-23T17:30:10;10.20;99.90
921;DHT22;447;51.332;6.778;2022-11-23T17:32:40;10.10;99.90
921;DHT22;447;51.332;6.778;2022-11-23T17:35:06;10.10;99.90
921;DHT22;447;51.332;6.778;2022-11-23T17:37:32;10.10;99.90
921;DHT22;447;51.332;6.778;2022-11-23T17:40:01;10.10;99.90
921;DHT22;447;51.332;6.778;2022-11-23T17:42:29;10.10;99.90
921;DHT22;447;51.332;6.778;2022-11-23T17:44:55;10.20;99.90
921;DHT22;447;51.332;6.778;2022-11-23T17:47:28;10.10;99.90
921;DHT22;447;51.332;6.778;2022-11-23T17:49:57;10.10;99.90
921;DHT22;447;51.332;6.778;2022-11-23T17:52:28;10.20;99.90
921;DHT22;447;51.332;6.778;2022-11-23T17:54:56;10.10;99.90
921;DHT22;447;51.332;6.778;2022-11-23T17:57:26;10.10;99.90
921;DHT22;447;51.332;6.778;2022-11-23T17:59:56;10.10;99.90
921;DHT22;447;51.332;6.778;2022-11-23T18:02:22;10.10;99.90
921;DHT22;447;51.332;6.778;2022-11-23T18:04:49;10.10;99.90
921;DHT22;447;51.332;6.778;2022-11-23T18:07:17;10.10;99.90
921;DHT22;447;51.332;6.778;2022-11-23T18:09:48;10.10;99.90
921;DHT22;447;51.332;6.778;2022-11-23T18:12:15;10.10;99.90
921;DHT22;447;51.332;6.778;2022-11-23T18:14:46;10.10;99.90
921;DHT22;447;51.332;6.778;2022-11-23T18:17:12;10.10;99.90
921;DHT22;447;51.332;6.778;2022-11-23T18:19:43;10.10;99.90
921;DHT22;447;51.332;6.778;2022-11-23T18:22:09;10.10;99.90
921;DHT22;447;51.332;6.778;2022-11-23T18:24:37;10.10;99.90
921;DHT22;447;51.332;6.778;2022-11-23T18:27:06;10.10;99.90
921;DHT22;447;51.332;6.778;2022-11-23T18:29:36;10.10;99.90
921;DHT22;447;51.332;6.778;2022-11-23T18:32:09;10.10;99.90
921;DHT22;447;51.332;6.778;2022-11-23T18:34:35;10.10;99.90
921;DHT22;447;51.332;6.778;2022-11-23T18:37:03;10.10;99.90
921;DHT22;447;51.332;6.778;2022-11-23T18:39:34;10.10;99.90
921;DHT22;447;51.332;6.778;2022-11-23T18:42:07;10.10;99.90
921;DHT22;447;51.332;6.778;2022-11-23T18:44:33;10.10;99.90
921;DHT22;447;51.332;6.778;2022-11-23T18:47:00;10.10;99.90
921;DHT22;447;51.332;6.778;2022-11-23T18:49:28;10.10;99.90
921;DHT22;447;51.332;6.778;2022-11-23T18:51:56;10.10;99.90
921;DHT22;447;51.332;6.778;2022-11-23T18:54:22;10.10;99.90
921;DHT22;447;51.332;6.778;2022-11-23T18:56:49;10.10;99.90
921;DHT22;447;51.332;6.778;2022-11-23T18:59:22;10.10;99.90
921;DHT22;447;51.332;6.778;2022-11-23T19:01:48;10.10;99.90
921;DHT22;447;51.332;6.778;2022-11-23T19:04:16;10.10;99.90
921;DHT22;447;51.332;6.778;2022-11-23T19:06:45;10.10;99.90
921;DHT22;447;51.332;6.778;2022-11-23T19:09:13;10.10;99.90
921;DHT22;447;51.332;6.778;2022-11-23T19:11:44;10.10;99.90
921;DHT22;447;51.332;6.778;2022-11-23T19:14:15;10.10;99.90
921;DHT22;447;51.332;6.778;2022-11-23T19:16:41;10.10;99.90
921;DHT22;447;51.332;6.778;2022-11-23T19:19:09;10.10;99.90
921;DHT22;447;51.332;6.778;2022-11-23T19:21:38;10.10;99.90
921;DHT22;447;51.332;6.778;2022-11-23T19:24:10;10.10;99.90
921;DHT22;447;51.332;6.778;2022-11-23T19:26:36;10.10;99.90
921;DHT22;447;51.332;6.778;2022-11-23T19:29:05;10.10;99.90
921;DHT22;447;51.332;6.778;2022-11-23T19:31:31;10.10;99.90